sensor_id;sensor_type;location;lat;lon;timestamp;pressure;altitude;pressure_sealevel;temperature;humidity
40994;BME280;26722;43.212;27.932;2023-05-20T00:00:04;54964.09;;;-146.72;51.26
40994;BME280;26722;43.212;27.932;2023-05-20T00:02:30;54972.53;;;-146.72;51.40
40994;BME280;26722;43.212;27.932;2023-05-20T00:04:55;54966.19;;;-146.72;51.31
40994;BME280;26722;43.212;27.932;2023-05-20T00:07:21;54976.75;;;-146.72;51.35
40994;BME280;26722;43.212;27.932;2023-05-20T00:09:46;54976.75;;;-146.72;51.53
40994;BME280;26722;43.212;27.932;2023-05-20T00:12:12;54968.31;;;-146.72;51.43
40994;BME280;26722;43.212;27.932;2023-05-20T00:14:37;54970.41;;;-146.72;51.66
40994;BME280;26722;43.212;27.932;2023-05-20T00:17:02;54976.75;;;-146.72;51.88
40994;BME280;26722;43.212;27.932;2023-05-20T00:19:28;54980.97;;;-146.72;52.14
40994;BME280;26722;43.212;27.932;2023-05-20T00:21:53;54964.09;;;-146.72;52.27
40994;BME280;26722;43.212;27.932;2023-05-20T00:24:18;54989.41;;;-146.72;52.60
40994;BME280;26722;43.212;27.932;2023-05-20T00:26:43;54972.53;;;-146.72;52.91
40994;BME280;26722;43.212;27.932;2023-05-20T00:29:09;54968.31;;;-146.72;53.04
40994;BME280;26722;43.212;27.932;2023-05-20T00:31:34;54980.97;;;-146.72;53.11
40994;BME280;26722;43.212;27.932;2023-05-20T00:34:00;54989.41;;;-146.72;53.39
40994;BME280;26722;43.212;27.932;2023-05-20T00:36:25;54974.63;;;-146.72;53.52
40994;BME280;26722;43.212;27.932;2023-05-20T00:38:51;54972.53;;;-146.72;53.77
40994;BME280;26722;43.212;27.932;2023-05-20T00:41:16;54993.63;;;-146.72;54.13
40994;BME280;26722;43.212;27.932;2023-05-20T00:43:41;54980.97;;;-146.72;54.15
40994;BME280;26722;43.212;27.932;2023-05-20T00:46:07;54985.19;;;-146.72;54.27
40994;BME280;26722;43.212;27.932;2023-05-20T00:48:37;54972.53;;;-146.72;54.42
40994;BME280;26722;43.212;27.932;2023-05-20T00:51:04;54980.97;;;-146.72;54.63
40994;BME280;26722;43.212;27.932;2023-05-20T00:53:31;54972.53;;;-146.72;54.75
40994;BME280;26722;43.212;27.932;2023-05-20T00:55:57;54985.19;;;-146.72;54.65
40994;BME280;26722;43.212;27.932;2023-05-20T00:58:23;54991.53;;;-146.72;54.75
40994;BME280;26722;43.212;27.932;2023-05-20T01:00:48;54976.75;;;-146.72;55.03
40994;BME280;26722;43.212;27.932;2023-05-20T01:03:14;54972.53;;;-146.72;55.08
40994;BME280;26722;43.212;27.932;2023-05-20T01:05:39;54978.88;;;-146.72;55.13
40994;BME280;26722;43.212;27.932;2023-05-20T01:08:05;54983.09;;;-146.72;55.13
40994;BME280;26722;43.212;27.932;2023-05-20T01:10:30;54972.53;;;-146.72;55.18
40994;BME280;26722;43.212;27.932;2023-05-20T01:12:57;54970.41;;;-146.72;55.29
40994;BME280;26722;43.212;27.932;2023-05-20T01:15:26;54993.63;;;-146.72;55.40
40994;BME280;26722;43.212;27.932;2023-05-20T01:17:52;54980.97;;;-146.72;55.50
40994;BME280;26722;43.212;27.932;2023-05-20T01:20:21;54966.19;;;-146.72;55.59
40994;BME280;26722;43.212;27.932;2023-05-20T01:22:56;54989.41;;;-146.72;55.74
40994;BME280;26722;43.212;27.932;2023-05-20T01:25:22;54980.97;;;-146.72;55.79
40994;BME280;26722;43.212;27.932;2023-05-20T01:27:48;54964.09;;;-146.72;55.93
40994;BME280;26722;43.212;27.932;2023-05-20T01:30:15;54978.88;;;-146.72;55.75
40994;BME280;26722;43.212;27.932;2023-05-20T01:32:42;54968.31;;;-146.72;55.86
40994;BME280;26722;43.212;27.932;2023-05-20T01:35:07;54955.63;;;-146.72;55.74
40994;BME280;26722;43.212;27.932;2023-05-20T01:37:34;54980.97;;;-146.72;55.75
40994;BME280;26722;43.212;27.932;2023-05-20T01:40:00;54968.31;;;-146.72;55.81
40994;BME280;26722;43.212;27.932;2023-05-20T01:42:28;54974.63;;;-146.72;55.98
40994;BME280;26722;43.212;27.932;2023-05-20T01:44:53;54974.63;;;-146.72;55.79
40994;BME280;26722;43.212;27.932;2023-05-20T01:47:18;54959.88;;;-146.72;55.78
40994;BME280;26722;43.212;27.932;2023-05-20T01:49:44;54976.75;;;-146.72;56.19
40994;BME280;26722;43.212;27.932;2023-05-20T01:52:10;54968.31;;;-146.72;56.24
40994;BME280;26722;43.212;27.932;2023-05-20T01:54:35;54974.63;;;-146.72;56.65
40994;BME280;26722;43.212;27.932;2023-05-20T01:57:01;54974.63;;;-146.72;56.44
40994;BME280;26722;43.212;27.932;2023-05-20T01:59:27;54947.19;;;-146.72;56.53
40994;BME280;26722;43.212;27.932;2023-05-20T02:01:52;54968.31;;;-146.72;56.39
40994;BME280;26722;43.212;27.932;2023-05-20T02:04:17;54989.41;;;-146.72;56.51
40994;BME280;26722;43.212;27.932;2023-05-20T02:06:43;54980.97;;;-146.72;56.89
40994;BME280;26722;43.212;27.932;2023-05-20T02:09:09;54966.19;;;-146.72;57.15
40994;BME280;26722;43.212;27.932;2023-05-20T02:11:34;54985.19;;;-146.72;57.42
40994;BME280;26722;43.212;27.932;2023-05-20T02:14:00;54976.75;;;-146.72;57.58
40994;BME280;26722;43.212;27.932;2023-05-20T02:16:25;54959.88;;;-146.72;57.56
40994;BME280;26722;43.212;27.932;2023-05-20T02:18:50;54985.19;;;-146.72;57.69
40994;BME280;26722;43.212;27.932;2023-05-20T02:21:17;54983.09;;;-146.72;57.84
40994;BME280;26722;43.212;27.932;2023-05-20T02:23:42;54980.97;;;-146.72;57.68
40994;BME280;26722;43.212;27.932;2023-05-20T02:26:07;54968.31;;;-146.72;57.53
40994;BME280;26722;43.212;27.932;2023-05-20T02:28:33;54970.41;;;-146.72;57.77
40994;BME280;26722;43.212;27.932;2023-05-20T02:30:58;54976.75;;;-146.72;57.76
40994;BME280;26722;43.212;27.932;2023-05-20T02:33:23;54985.19;;;-146.72;57.76
40994;BME280;26722;43.212;27.932;2023-05-20T02:35:49;54966.19;;;-146.72;57.66
40994;BME280;26722;43.212;27.932;2023-05-20T02:38:15;54964.09;;;-146.72;57.56
40994;BME280;26722;43.212;27.932;2023-05-20T02:40:43;54976.75;;;-146.72;57.41
40994;BME280;26722;43.212;27.932;2023-05-20T02:43:08;54980.97;;;-146.72;57.49
40994;BME280;26722;43.212;27.932;2023-05-20T02:45:33;54968.31;;;-146.72;57.17
40994;BME280;26722;43.212;27.932;2023-05-20T02:47:59;54976.75;;;-146.72;57.27
40994;BME280;26722;43.212;27.932;2023-05-20T02:50:24;54976.75;;;-146.72;56.80
40994;BME280;26722;43.212;27.932;2023-05-20T02:52:50;54972.53;;;-146.72;56.87
40994;BME280;26722;43.212;27.932;2023-05-20T02:55:15;54972.53;;;-146.72;57.02
40994;BME280;26722;43.212;27.932;2023-05-20T02:57:40;54980.97;;;-146.72;56.81
40994;BME280;26722;43.212;27.932;2023-05-20T03:00:06;54972.53;;;-146.72;57.28
40994;BME280;26722;43.212;27.932;2023-05-20T03:02:35;54976.75;;;-146.72;57.19
40994;BME280;26722;43.212;27.932;2023-05-20T03:05:00;54976.75;;;-146.72;57.95
40994;BME280;26722;43.212;27.932;2023-05-20T03:07:26;54972.53;;;-146.72;58.55
40994;BME280;26722;43.212;27.932;2023-05-20T03:09:51;54972.53;;;-146.72;58.61
40994;BME280;26722;43.212;27.932;2023-05-20T03:12:17;54980.97;;;-146.72;58.96
40994;BME280;26722;43.212;27.932;2023-05-20T03:14:42;54980.97;;;-146.72;59.30
40994;BME280;26722;43.212;27.932;2023-05-20T03:17:08;54983.09;;;-146.72;59.33
40994;BME280;26722;43.212;27.932;2023-05-20T03:19:33;54995.75;;;-146.72;59.48
40994;BME280;26722;43.212;27.932;2023-05-20T03:21:59;54985.19;;;-146.72;59.32
40994;BME280;26722;43.212;27.932;2023-05-20T03:24:25;54987.31;;;-146.72;58.58
40994;BME280;26722;43.212;27.932;2023-05-20T03:26:50;54993.63;;;-146.72;58.22
40994;BME280;26722;43.212;27.932;2023-05-20T03:29:15;54978.88;;;-146.72;58.38
40994;BME280;26722;43.212;27.932;2023-05-20T03:31:42;54995.75;;;-146.72;57.87
40994;BME280;26722;43.212;27.932;2023-05-20T03:34:07;54987.31;;;-146.72;57.71
40994;BME280;26722;43.212;27.932;2023-05-20T03:36:32;54985.19;;;-146.72;57.10
40994;BME280;26722;43.212;27.932;2023-05-20T03:38:58;54966.19;;;-146.72;57.12
40994;BME280;26722;43.212;27.932;2023-05-20T03:41:23;54983.09;;;-146.72;57.32
40994;BME280;26722;43.212;27.932;2023-05-20T03:43:48;54968.31;;;-146.72;57.72
40994;BME280;26722;43.212;27.932;2023-05-20T03:46:13;55004.19;;;-146.72;57.55
40994;BME280;26722;43.212;27.932;2023-05-20T03:48:39;54983.09;;;-146.72;57.75
40994;BME280;26722;43.212;27.932;2023-05-20T03:51:05;54976.75;;;-146.72;57.61
40994;BME280;26722;43.212;27.932;2023-05-20T03:53:30;54985.19;;;-146.72;57.73
40994;BME280;26722;43.212;27.932;2023-05-20T03:55:55;54983.09;;;-146.72;58.27
40994;BME280;26722;43.212;27.932;2023-05-20T03:58:21;54980.97;;;-146.72;58.66
40994;BME280;26722;43.212;27.932;2023-05-20T04:00:46;54987.31;;;-146.72;59.43
40994;BME280;26722;43.212;27.932;2023-05-20T04:03:11;54976.75;;;-146.72;59.50
40994;BME280;26722;43.212;27.932;2023-05-20T04:05:37;54983.09;;;-146.72;60.03
40994;BME280;26722;43.212;27.932;2023-05-20T04:08:02;54989.41;;;-146.72;60.05
40994;BME280;26722;43.212;27.932;2023-05-20T04:10:29;54980.97;;;-146.72;60.76
40994;BME280;26722;43.212;27.932;2023-05-20T04:12:56;54983.09;;;-146.72;61.51
40994;BME280;26722;43.212;27.932;2023-05-20T04:15:21;54987.31;;;-146.72;61.97
40994;BME280;26722;43.212;27.932;2023-05-20T04:17:47;54980.97;;;-146.72;63.12
40994;BME280;26722;43.212;27.932;2023-05-20T04:20:14;55012.63;;;-146.72;63.76
40994;BME280;26722;43.212;27.932;2023-05-20T04:22:40;54989.41;;;-146.72;64.19
40994;BME280;26722;43.212;27.932;2023-05-20T04:25:05;54976.75;;;-146.72;65.04
40994;BME280;26722;43.212;27.932;2023-05-20T04:27:31;55002.09;;;-146.72;65.48
40994;BME280;26722;43.212;27.932;2023-05-20T04:29:59;55002.09;;;-146.72;65.97
40994;BME280;26722;43.212;27.932;2023-05-20T04:32:26;54995.75;;;-146.72;66.85
40994;BME280;26722;43.212;27.932;2023-05-20T04:34:51;55002.09;;;-146.72;66.63
40994;BME280;26722;43.212;27.932;2023-05-20T04:37:18;55010.53;;;-146.72;66.96
40994;BME280;26722;43.212;27.932;2023-05-20T04:39:44;54991.53;;;-146.72;67.38
40994;BME280;26722;43.212;27.932;2023-05-20T04:42:12;54997.88;;;-146.72;67.96
40994;BME280;26722;43.212;27.932;2023-05-20T04:44:37;55010.53;;;-146.72;68.29
40994;BME280;26722;43.212;27.932;2023-05-20T04:47:03;55006.31;;;-146.72;68.50
40994;BME280;26722;43.212;27.932;2023-05-20T04:49:28;55029.53;;;-146.72;68.88
40994;BME280;26722;43.212;27.932;2023-05-20T04:51:54;55006.31;;;-146.72;68.64
40994;BME280;26722;43.212;27.932;2023-05-20T04:54:19;55002.09;;;-146.72;68.94
40994;BME280;26722;43.212;27.932;2023-05-20T04:56:45;55004.19;;;-146.72;68.73
40994;BME280;26722;43.212;27.932;2023-05-20T04:59:11;55002.09;;;-146.72;69.48
40994;BME280;26722;43.212;27.932;2023-05-20T05:01:36;54999.97;;;-146.72;69.42
40994;BME280;26722;43.212;27.932;2023-05-20T05:04:01;55012.63;;;-146.72;70.00
40994;BME280;26722;43.212;27.932;2023-05-20T05:06:27;55012.63;;;-146.72;70.01
40994;BME280;26722;43.212;27.932;2023-05-20T05:08:53;54995.75;;;-146.72;69.97
40994;BME280;26722;43.212;27.932;2023-05-20T05:11:18;54995.75;;;-146.72;69.87
40994;BME280;26722;43.212;27.932;2023-05-20T05:13:43;55012.63;;;-146.72;69.45
40994;BME280;26722;43.212;27.932;2023-05-20T05:16:09;54997.88;;;-146.72;69.63
40994;BME280;26722;43.212;27.932;2023-05-20T05:18:34;54991.53;;;-146.72;69.42
40994;BME280;26722;43.212;27.932;2023-05-20T05:21:00;55016.88;;;-146.72;69.48
40994;BME280;26722;43.212;27.932;2023-05-20T05:23:26;55025.31;;;-146.72;69.41
40994;BME280;26722;43.212;27.932;2023-05-20T05:25:51;54999.97;;;-146.72;69.22
40994;BME280;26722;43.212;27.932;2023-05-20T05:28:17;54980.97;;;-146.72;68.96
40994;BME280;26722;43.212;27.932;2023-05-20T05:30:42;54993.63;;;-146.72;68.35
40994;BME280;26722;43.212;27.932;2023-05-20T05:33:07;55014.75;;;-146.72;67.94
40994;BME280;26722;43.212;27.932;2023-05-20T05:35:33;54995.75;;;-146.72;67.72
40994;BME280;26722;43.212;27.932;2023-05-20T05:37:58;54995.75;;;-146.72;67.23
40994;BME280;26722;43.212;27.932;2023-05-20T05:40:23;54997.88;;;-146.72;67.59
40994;BME280;26722;43.212;27.932;2023-05-20T05:42:48;54993.63;;;-146.72;67.26
40994;BME280;26722;43.212;27.932;2023-05-20T05:45:14;55002.09;;;-146.72;67.02
40994;BME280;26722;43.212;27.932;2023-05-20T05:47:39;54989.41;;;-146.72;66.51
40994;BME280;26722;43.212;27.932;2023-05-20T05:50:04;54989.41;;;-146.72;66.78
40994;BME280;26722;43.212;27.932;2023-05-20T05:52:30;54987.31;;;-146.72;66.80
40994;BME280;26722;43.212;27.932;2023-05-20T05:54:55;54980.97;;;-146.72;67.33
40994;BME280;26722;43.212;27.932;2023-05-20T05:57:21;54999.97;;;-146.72;68.13
40994;BME280;26722;43.212;27.932;2023-05-20T05:59:46;55002.09;;;-146.72;68.04
40994;BME280;26722;43.212;27.932;2023-05-20T06:02:11;54997.88;;;-146.72;67.79
40994;BME280;26722;43.212;27.932;2023-05-20T06:04:38;54985.19;;;-146.72;68.33
40994;BME280;26722;43.212;27.932;2023-05-20T06:07:03;54978.88;;;-146.72;67.20
40994;BME280;26722;43.212;27.932;2023-05-20T06:09:29;54972.53;;;-146.72;67.18
40994;BME280;26722;43.212;27.932;2023-05-20T06:11:54;54999.97;;;-146.72;66.37
40994;BME280;26722;43.212;27.932;2023-05-20T06:14:20;54997.88;;;-146.72;66.18
40994;BME280;26722;43.212;27.932;2023-05-20T06:16:45;54993.63;;;-146.72;65.31
40994;BME280;26722;43.212;27.932;2023-05-20T06:19:10;54987.31;;;-146.72;65.13
40994;BME280;26722;43.212;27.932;2023-05-20T06:21:35;54968.31;;;-146.72;62.97
40994;BME280;26722;43.212;27.932;2023-05-20T06:24:01;54993.63;;;-146.72;61.83
40994;BME280;26722;43.212;27.932;2023-05-20T06:26:26;54976.75;;;-146.72;60.70
40994;BME280;26722;43.212;27.932;2023-05-20T06:28:52;54978.88;;;-146.72;60.67
40994;BME280;26722;43.212;27.932;2023-05-20T06:31:17;54976.75;;;-146.72;59.65
40994;BME280;26722;43.212;27.932;2023-05-20T06:33:42;54968.31;;;-146.72;58.08
40994;BME280;26722;43.212;27.932;2023-05-20T06:36:08;54968.31;;;-146.72;57.95
40994;BME280;26722;43.212;27.932;2023-05-20T06:38:33;54976.75;;;-146.72;58.49
40994;BME280;26722;43.212;27.932;2023-05-20T06:40:58;54970.41;;;-146.72;58.10
40994;BME280;26722;43.212;27.932;2023-05-20T06:43:23;54976.75;;;-146.72;57.75
40994;BME280;26722;43.212;27.932;2023-05-20T06:45:49;54955.63;;;-146.72;56.93
40994;BME280;26722;43.212;27.932;2023-05-20T06:48:14;54972.53;;;-146.72;55.74
40994;BME280;26722;43.212;27.932;2023-05-20T06:50:40;54980.97;;;-146.72;55.23
40994;BME280;26722;43.212;27.932;2023-05-20T06:53:05;54972.53;;;-146.72;55.00
40994;BME280;26722;43.212;27.932;2023-05-20T06:55:31;54949.31;;;-146.72;53.94
40994;BME280;26722;43.212;27.932;2023-05-20T06:57:56;54974.63;;;-146.72;52.73
40994;BME280;26722;43.212;27.932;2023-05-20T07:00:21;54968.31;;;-146.72;52.55
40994;BME280;26722;43.212;27.932;2023-05-20T07:02:47;54976.75;;;-146.72;51.60
40994;BME280;26722;43.212;27.932;2023-05-20T07:05:12;54953.53;;;-146.72;51.36
40994;BME280;26722;43.212;27.932;2023-05-20T07:07:37;54957.75;;;-146.72;51.30
40994;BME280;26722;43.212;27.932;2023-05-20T07:10:03;54961.97;;;-146.72;51.46
40994;BME280;26722;43.212;27.932;2023-05-20T07:12:30;54945.09;;;-146.72;50.95
40994;BME280;26722;43.212;27.932;2023-05-20T07:14:55;54957.75;;;-146.72;50.61
40994;BME280;26722;43.212;27.932;2023-05-20T07:17:20;54942.97;;;-146.72;49.44
40994;BME280;26722;43.212;27.932;2023-05-20T07:19:46;54949.31;;;-146.72;50.65
40994;BME280;26722;43.212;27.932;2023-05-20T07:22:11;54940.88;;;-146.72;50.48
40994;BME280;26722;43.212;27.932;2023-05-20T07:24:37;54942.97;;;-146.72;49.92
40994;BME280;26722;43.212;27.932;2023-05-20T07:27:02;54951.41;;;-146.72;50.12
40994;BME280;26722;43.212;27.932;2023-05-20T07:29:28;54951.41;;;-146.72;50.39
40994;BME280;26722;43.212;27.932;2023-05-20T07:31:53;54942.97;;;-146.72;51.28
40994;BME280;26722;43.212;27.932;2023-05-20T07:34:18;54949.31;;;-146.72;51.74
40994;BME280;26722;43.212;27.932;2023-05-20T07:36:44;54959.88;;;-146.72;52.20
40994;BME280;26722;43.212;27.932;2023-05-20T07:39:09;54959.88;;;-146.72;52.45
40994;BME280;26722;43.212;27.932;2023-05-20T07:41:35;54968.31;;;-146.72;53.13
40994;BME280;26722;43.212;27.932;2023-05-20T07:44:01;54966.19;;;-146.72;53.48
40994;BME280;26722;43.212;27.932;2023-05-20T07:46:27;54947.19;;;-146.72;53.80
40994;BME280;26722;43.212;27.932;2023-05-20T07:48:52;54951.41;;;-146.72;54.09
40994;BME280;26722;43.212;27.932;2023-05-20T07:51:17;54936.63;;;-146.72;53.96
40994;BME280;26722;43.212;27.932;2023-05-20T07:53:43;54957.75;;;-146.72;54.61
40994;BME280;26722;43.212;27.932;2023-05-20T07:56:08;54928.19;;;-146.72;54.79
40994;BME280;26722;43.212;27.932;2023-05-20T07:58:33;54947.19;;;-146.72;55.73
40994;BME280;26722;43.212;27.932;2023-05-20T08:00:59;54966.19;;;-146.72;56.83
40994;BME280;26722;43.212;27.932;2023-05-20T08:03:24;54959.88;;;-146.72;58.14
40994;BME280;26722;43.212;27.932;2023-05-20T08:05:50;54961.97;;;-146.72;59.45
40994;BME280;26722;43.212;27.932;2023-05-20T08:08:16;54968.31;;;-146.72;60.81
40994;BME280;26722;43.212;27.932;2023-05-20T08:10:41;54970.41;;;-146.72;61.88
40994;BME280;26722;43.212;27.932;2023-05-20T08:13:06;54959.88;;;-146.72;63.33
40994;BME280;26722;43.212;27.932;2023-05-20T08:15:32;54968.31;;;-146.72;63.43
40994;BME280;26722;43.212;27.932;2023-05-20T08:17:57;54985.19;;;-146.72;65.01
40994;BME280;26722;43.212;27.932;2023-05-20T08:20:22;54993.63;;;-146.72;65.52
40994;BME280;26722;43.212;27.932;2023-05-20T08:22:50;54980.97;;;-146.72;66.47
40994;BME280;26722;43.212;27.932;2023-05-20T08:25:15;54972.53;;;-146.72;66.06
40994;BME280;26722;43.212;27.932;2023-05-20T08:27:41;54995.75;;;-146.72;67.64
40994;BME280;26722;43.212;27.932;2023-05-20T08:30:06;54995.75;;;-146.72;67.42
40994;BME280;26722;43.212;27.932;2023-05-20T08:32:34;54989.41;;;-146.72;67.23
40994;BME280;26722;43.212;27.932;2023-05-20T08:34:59;54983.09;;;-146.72;68.60
40994;BME280;26722;43.212;27.932;2023-05-20T08:37:26;54991.53;;;-146.72;68.91
40994;BME280;26722;43.212;27.932;2023-05-20T08:39:52;54972.53;;;-146.72;68.76
40994;BME280;26722;43.212;27.932;2023-05-20T08:42:21;54983.09;;;-146.72;68.63
40994;BME280;26722;43.212;27.932;2023-05-20T08:44:46;54980.97;;;-146.72;69.43
40994;BME280;26722;43.212;27.932;2023-05-20T08:47:12;54991.53;;;-146.72;68.22
40994;BME280;26722;43.212;27.932;2023-05-20T08:49:37;54983.09;;;-146.72;68.60
40994;BME280;26722;43.212;27.932;2023-05-20T08:52:03;54976.75;;;-146.72;67.91
40994;BME280;26722;43.212;27.932;2023-05-20T08:54:34;54980.97;;;-146.72;68.14
40994;BME280;26722;43.212;27.932;2023-05-20T08:57:04;54968.31;;;-146.72;68.58
40994;BME280;26722;43.212;27.932;2023-05-20T08:59:29;54968.31;;;-146.72;68.24
40994;BME280;26722;43.212;27.932;2023-05-20T09:01:55;54974.63;;;-146.72;68.04
40994;BME280;26722;43.212;27.932;2023-05-20T09:04:20;54976.75;;;-146.72;67.31
40994;BME280;26722;43.212;27.932;2023-05-20T09:06:46;54972.53;;;-146.72;67.82
40994;BME280;26722;43.212;27.932;2023-05-20T09:09:11;54980.97;;;-146.72;67.62
40994;BME280;26722;43.212;27.932;2023-05-20T09:11:38;54980.97;;;-146.72;66.75
40994;BME280;26722;43.212;27.932;2023-05-20T09:14:03;54968.31;;;-146.72;65.93
40994;BME280;26722;43.212;27.932;2023-05-20T09:16:28;54964.09;;;-146.72;65.06
40994;BME280;26722;43.212;27.932;2023-05-20T09:18:54;54972.53;;;-146.72;63.13
40994;BME280;26722;43.212;27.932;2023-05-20T09:21:24;54972.53;;;-146.72;64.06
40994;BME280;26722;43.212;27.932;2023-05-20T09:23:50;54964.09;;;-146.72;62.34
40994;BME280;26722;43.212;27.932;2023-05-20T09:26:17;54951.41;;;-146.72;60.64
40994;BME280;26722;43.212;27.932;2023-05-20T09:28:42;54945.09;;;-146.72;61.22
40994;BME280;26722;43.212;27.932;2023-05-20T09:31:07;54938.75;;;-146.72;60.98
40994;BME280;26722;43.212;27.932;2023-05-20T09:33:33;54932.41;;;-146.72;60.29
40994;BME280;26722;43.212;27.932;2023-05-20T09:36:03;54938.75;;;-146.72;58.80
40994;BME280;26722;43.212;27.932;2023-05-20T09:38:29;54942.97;;;-146.72;59.65
40994;BME280;26722;43.212;27.932;2023-05-20T09:41:00;54942.97;;;-146.72;60.15
40994;BME280;26722;43.212;27.932;2023-05-20T09:43:26;54959.88;;;-146.72;60.51
40994;BME280;26722;43.212;27.932;2023-05-20T09:45:52;54936.63;;;-146.72;61.09
40994;BME280;26722;43.212;27.932;2023-05-20T09:48:19;54926.09;;;-146.72;61.49
40994;BME280;26722;43.212;27.932;2023-05-20T09:50:45;54936.63;;;-146.72;61.02
40994;BME280;26722;43.212;27.932;2023-05-20T09:53:10;54947.19;;;-146.72;61.57
40994;BME280;26722;43.212;27.932;2023-05-20T09:55:37;54947.19;;;-146.72;61.70
40994;BME280;26722;43.212;27.932;2023-05-20T09:58:02;54942.97;;;-146.72;61.83
40994;BME280;26722;43.212;27.932;2023-05-20T10:00:27;54934.53;;;-146.72;61.62
40994;BME280;26722;43.212;27.932;2023-05-20T10:02:53;54926.09;;;-146.72;61.31
40994;BME280;26722;43.212;27.932;2023-05-20T10:05:26;54930.31;;;-146.72;60.59
40994;BME280;26722;43.212;27.932;2023-05-20T10:10:44;54934.53;;;-146.72;59.06
40994;BME280;26722;43.212;27.932;2023-05-20T10:13:34;54913.41;;;-146.72;58.56
40994;BME280;26722;43.212;27.932;2023-05-20T10:20:56;54928.19;;;-146.72;58.67
40994;BME280;26722;43.212;27.932;2023-05-20T10:23:22;54928.19;;;-146.72;59.42
40994;BME280;26722;43.212;27.932;2023-05-20T10:25:51;54904.97;;;-146.72;58.88
40994;BME280;26722;43.212;27.932;2023-05-20T10:28:35;54919.75;;;-146.72;58.47
40994;BME280;26722;43.212;27.932;2023-05-20T10:31:01;54921.88;;;-146.72;59.11
40994;BME280;26722;43.212;27.932;2023-05-20T10:33:27;54913.41;;;-146.72;58.61
40994;BME280;26722;43.212;27.932;2023-05-20T10:35:53;54900.75;;;-146.72;58.32
40994;BME280;26722;43.212;27.932;2023-05-20T10:38:19;54892.31;;;-146.72;56.43
40994;BME280;26722;43.212;27.932;2023-05-20T10:40:45;54892.31;;;-146.72;54.78
40994;BME280;26722;43.212;27.932;2023-05-20T10:43:11;54896.53;;;-146.72;49.26
40994;BME280;26722;43.212;27.932;2023-05-20T10:45:47;54875.41;;;-146.72;42.88
40994;BME280;26722;43.212;27.932;2023-05-20T10:48:22;54862.75;;;-146.72;38.89
40994;BME280;26722;43.212;27.932;2023-05-20T10:50:48;54879.63;;;-146.72;37.92
40994;BME280;26722;43.212;27.932;2023-05-20T10:53:13;54847.97;;;-146.72;41.99
40994;BME280;26722;43.212;27.932;2023-05-20T10:55:40;54852.19;;;-146.72;42.11
40994;BME280;26722;43.212;27.932;2023-05-20T10:58:06;54854.31;;;-146.72;41.62
40994;BME280;26722;43.212;27.932;2023-05-20T11:00:34;54843.75;;;-146.72;39.48
40994;BME280;26722;43.212;27.932;2023-05-20T11:03:03;54845.88;;;-146.72;36.38
40994;BME280;26722;43.212;27.932;2023-05-20T11:05:29;54847.97;;;-146.72;34.30
40994;BME280;26722;43.212;27.932;2023-05-20T11:08:02;54845.88;;;-146.72;36.90
40994;BME280;26722;43.212;27.932;2023-05-20T11:10:27;54841.63;;;-146.72;34.71
40994;BME280;26722;43.212;27.932;2023-05-20T11:12:53;54858.53;;;-146.72;34.84
40994;BME280;26722;43.212;27.932;2023-05-20T11:15:18;54852.19;;;-146.72;37.10
40994;BME280;26722;43.212;27.932;2023-05-20T11:17:53;54858.53;;;-146.72;33.31
40994;BME280;26722;43.212;27.932;2023-05-20T11:20:19;54850.09;;;-146.72;34.92
40994;BME280;26722;43.212;27.932;2023-05-20T11:22:45;54850.09;;;-146.72;38.22
40994;BME280;26722;43.212;27.932;2023-05-20T11:25:10;54847.97;;;-146.72;37.50
40994;BME280;26722;43.212;27.932;2023-05-20T11:27:39;54845.88;;;-146.72;37.82
40994;BME280;26722;43.212;27.932;2023-05-20T11:30:05;54856.41;;;-146.72;38.63
40994;BME280;26722;43.212;27.932;2023-05-20T11:32:31;54858.53;;;-146.72;38.02
40994;BME280;26722;43.212;27.932;2023-05-20T11:34:56;54847.97;;;-146.72;39.19
40994;BME280;26722;43.212;27.932;2023-05-20T11:37:22;54854.31;;;-146.72;39.54
40994;BME280;26722;43.212;27.932;2023-05-20T11:39:48;54866.97;;;-146.72;40.23
40994;BME280;26722;43.212;27.932;2023-05-20T11:42:13;54866.97;;;-146.72;40.89
40994;BME280;26722;43.212;27.932;2023-05-20T11:44:41;54856.41;;;-146.72;41.00
40994;BME280;26722;43.212;27.932;2023-05-20T11:47:08;54885.97;;;-146.72;41.38
40994;BME280;26722;43.212;27.932;2023-05-20T11:49:38;54879.63;;;-146.72;41.63
40994;BME280;26722;43.212;27.932;2023-05-20T11:52:04;54858.53;;;-146.72;41.42
40994;BME280;26722;43.212;27.932;2023-05-20T11:54:29;54864.88;;;-146.72;41.47
40994;BME280;26722;43.212;27.932;2023-05-20T11:56:59;54866.97;;;-146.72;41.54
40994;BME280;26722;43.212;27.932;2023-05-20T11:59:24;54866.97;;;-146.72;42.22
40994;BME280;26722;43.212;27.932;2023-05-20T12:01:50;54881.75;;;-146.72;42.86
40994;BME280;26722;43.212;27.932;2023-05-20T12:04:15;54869.09;;;-146.72;42.38
40994;BME280;26722;43.212;27.932;2023-05-20T12:06:41;54879.63;;;-146.72;42.41
40994;BME280;26722;43.212;27.932;2023-05-20T12:09:08;54862.75;;;-146.72;42.85
40994;BME280;26722;43.212;27.932;2023-05-20T12:11:37;54879.63;;;-146.72;42.91
40994;BME280;26722;43.212;27.932;2023-05-20T12:14:04;54858.53;;;-146.72;43.44
40994;BME280;26722;43.212;27.932;2023-05-20T12:16:30;54862.75;;;-146.72;43.39
40994;BME280;26722;43.212;27.932;2023-05-20T12:18:55;54850.09;;;-146.72;42.74
40994;BME280;26722;43.212;27.932;2023-05-20T12:21:21;54850.09;;;-146.72;42.10
40994;BME280;26722;43.212;27.932;2023-05-20T12:23:46;54850.09;;;-146.72;41.76
40994;BME280;26722;43.212;27.932;2023-05-20T12:26:11;54850.09;;;-146.72;42.17
40994;BME280;26722;43.212;27.932;2023-05-20T12:28:37;54847.97;;;-146.72;41.66
40994;BME280;26722;43.212;27.932;2023-05-20T12:31:02;54841.63;;;-146.72;41.25